sensor_id;sensor_type;location;lat;lon;timestamp;P1;durP1;ratioP1;P2;durP2;ratioP2
70800;SDS011;59616;52.170;5.386;2023-08-06T00:02:13;13.23;;;5.35;;
70800;SDS011;59616;52.170;5.386;2023-08-06T00:04:40;12.82;;;5.22;;
70800;SDS011;59616;52.170;5.386;2023-08-06T00:07:08;13.52;;;5.30;;
70800;SDS011;59616;52.170;5.386;2023-08-06T00:09:35;12.50;;;5.43;;
70800;SDS011;59616;52.170;5.386;2023-08-06T00:12:02;14.75;;;5.55;;
70800;SDS011;59616;52.170;5.386;2023-08-06T00:14:29;13.63;;;5.22;;
70800;SDS011;59616;52.170;5.386;2023-08-06T00:16:57;12.25;;;5.22;;
70800;SDS011;59616;52.170;5.386;2023-08-06T00:19:24;13.55;;;5.78;;
70800;SDS011;59616;52.170;5.386;2023-08-06T00:21:51;13.60;;;5.65;;
70800;SDS011;59616;52.170;5.386;2023-08-06T00:24:19;12.10;;;5.60;;
70800;SDS011;59616;52.170;5.386;2023-08-06T00:26:46;12.45;;;5.57;;
70800;SDS011;59616;52.170;5.386;2023-08-06T00:29:13;12.13;;;5.00;;
70800;SDS011;59616;52.170;5.386;2023-08-06T00:31:41;15.13;;;6.10;;
70800;SDS011;59616;52.170;5.386;2023-08-06T00:34:08;12.63;;;5.43;;
70800;SDS011;59616;52.170;5.386;2023-08-06T00:36:35;12.48;;;5.68;;
70800;SDS011;59616;52.170;5.386;2023-08-06T00:39:03;11.75;;;5.28;;
70800;SDS011;59616;52.170;5.386;2023-08-06T00:41:30;13.95;;;5.50;;
70800;SDS011;59616;52.170;5.386;2023-08-06T00:43:57;10.88;;;5.13;;
70800;SDS011;59616;52.170;5.386;2023-08-06T00:46:25;13.70;;;5.88;;
70800;SDS011;59616;52.170;5.386;2023-08-06T00:48:52;15.57;;;5.18;;
70800;SDS011;59616;52.170;5.386;2023-08-06T00:51:19;13.48;;;5.40;;
70800;SDS011;59616;52.170;5.386;2023-08-06T00:53:48;12.57;;;5.82;;
70800;SDS011;59616;52.170;5.386;2023-08-06T00:56:16;12.52;;;5.40;;
70800;SDS011;59616;52.170;5.386;2023-08-06T00:58:43;14.90;;;5.90;;
70800;SDS011;59616;52.170;5.386;2023-08-06T01:01:11;14.07;;;5.65;;
70800;SDS011;59616;52.170;5.386;2023-08-06T01:03:39;13.32;;;5.50;;
70800;SDS011;59616;52.170;5.386;2023-08-06T01:06:06;13.57;;;5.50;;
70800;SDS011;59616;52.170;5.386;2023-08-06T01:11:14;12.93;;;5.57;;
70800;SDS011;59616;52.170;5.386;2023-08-06T01:13:48;12.80;;;5.47;;
70800;SDS011;59616;52.170;5.386;2023-08-06T01:16:19;14.98;;;5.38;;
70800;SDS011;59616;52.170;5.386;2023-08-06T01:18:47;12.40;;;5.60;;
70800;SDS011;59616;52.170;5.386;2023-08-06T01:21:18;14.13;;;5.90;;
70800;SDS011;59616;52.170;5.386;2023-08-06T01:23:46;13.15;;;5.88;;
70800;SDS011;59616;52.170;5.386;2023-08-06T01:26:19;14.70;;;6.00;;
70800;SDS011;59616;52.170;5.386;2023-08-06T01:31:35;12.88;;;6.10;;
70800;SDS011;59616;52.170;5.386;2023-08-06T01:34:05;13.85;;;6.00;;
70800;SDS011;59616;52.170;5.386;2023-08-06T01:36:33;13.05;;;6.22;;
70800;SDS011;59616;52.170;5.386;2023-08-06T01:39:00;15.05;;;6.53;;
70800;SDS011;59616;52.170;5.386;2023-08-06T01:41:28;16.52;;;7.25;;
70800;SDS011;59616;52.170;5.386;2023-08-06T01:43:56;16.60;;;6.78;;
70800;SDS011;59616;52.170;5.386;2023-08-06T01:46:23;14.93;;;6.20;;
70800;SDS011;59616;52.170;5.386;2023-08-06T01:48:51;17.30;;;6.82;;
70800;SDS011;59616;52.170;5.386;2023-08-06T01:51:18;14.75;;;6.28;;
70800;SDS011;59616;52.170;5.386;2023-08-06T01:53:46;14.05;;;6.00;;
70800;SDS011;59616;52.170;5.386;2023-08-06T01:56:13;14.88;;;6.10;;
70800;SDS011;59616;52.170;5.386;2023-08-06T01:58:41;12.77;;;6.18;;
70800;SDS011;59616;52.170;5.386;2023-08-06T02:01:08;16.35;;;7.22;;
70800;SDS011;59616;52.170;5.386;2023-08-06T02:03:35;13.50;;;6.10;;
70800;SDS011;59616;52.170;5.386;2023-08-06T02:06:03;16.52;;;7.35;;
70800;SDS011;59616;52.170;5.386;2023-08-06T02:08:30;15.90;;;6.95;;
70800;SDS011;59616;52.170;5.386;2023-08-06T02:10:57;17.33;;;7.68;;
70800;SDS011;59616;52.170;5.386;2023-08-06T02:13:25;15.65;;;7.03;;
70800;SDS011;59616;52.170;5.386;2023-08-06T02:15:53;15.52;;;7.30;;
70800;SDS011;59616;52.170;5.386;2023-08-06T02:18:20;16.00;;;7.25;;
70800;SDS011;59616;52.170;5.386;2023-08-06T02:20:54;15.98;;;7.55;;
70800;SDS011;59616;52.170;5.386;2023-08-06T02:23:23;17.42;;;7.70;;
70800;SDS011;59616;52.170;5.386;2023-08-06T02:26:00;17.67;;;7.88;;
70800;SDS011;59616;52.170;5.386;2023-08-06T02:28:28;20.33;;;7.35;;
70800;SDS011;59616;52.170;5.386;2023-08-06T02:30:55;15.30;;;7.15;;
70800;SDS011;59616;52.170;5.386;2023-08-06T02:33:23;16.33;;;7.95;;
70800;SDS011;59616;52.170;5.386;2023-08-06T02:35:51;17.98;;;7.57;;
70800;SDS011;59616;52.170;5.386;2023-08-06T02:38:18;16.83;;;7.78;;
70800;SDS011;59616;52.170;5.386;2023-08-06T02:40:46;17.58;;;7.82;;
70800;SDS011;59616;52.170;5.386;2023-08-06T02:43:13;17.08;;;8.35;;
70800;SDS011;59616;52.170;5.386;2023-08-06T02:45:41;16.77;;;8.40;;
70800;SDS011;59616;52.170;5.386;2023-08-06T02:48:08;17.67;;;7.78;;
70800;SDS011;59616;52.170;5.386;2023-08-06T02:50:40;17.75;;;7.85;;
70800;SDS011;59616;52.170;5.386;2023-08-06T02:53:08;15.35;;;6.75;;
70800;SDS011;59616;52.170;5.386;2023-08-06T02:55:36;15.75;;;6.80;;
70800;SDS011;59616;52.170;5.386;2023-08-06T02:58:11;13.88;;;6.47;;
70800;SDS011;59616;52.170;5.386;2023-08-06T03:00:43;16.77;;;6.70;;
70800;SDS011;59616;52.170;5.386;2023-08-06T03:03:13;14.00;;;5.70;;
70800;SDS011;59616;52.170;5.386;2023-08-06T03:05:53;13.73;;;5.93;;
70800;SDS011;59616;52.170;5.386;2023-08-06T03:08:33;13.30;;;5.95;;
70800;SDS011;59616;52.170;5.386;2023-08-06T03:11:00;14.25;;;5.72;;
70800;SDS011;59616;52.170;5.386;2023-08-06T03:13:27;13.02;;;5.70;;
70800;SDS011;59616;52.170;5.386;2023-08-06T03:15:55;15.32;;;6.38;;
70800;SDS011;59616;52.170;5.386;2023-08-06T03:18:24;12.65;;;5.68;;
70800;SDS011;59616;52.170;5.386;2023-08-06T03:20:53;12.77;;;5.80;;
70800;SDS011;59616;52.170;5.386;2023-08-06T03:23:20;14.13;;;6.45;;
70800;SDS011;59616;52.170;5.386;2023-08-06T03:25:48;13.02;;;5.93;;
70800;SDS011;59616;52.170;5.386;2023-08-06T03:28:16;13.02;;;5.65;;
70800;SDS011;59616;52.170;5.386;2023-08-06T03:30:44;14.65;;;6.18;;
70800;SDS011;59616;52.170;5.386;2023-08-06T03:33:12;13.30;;;5.90;;
70800;SDS011;59616;52.170;5.386;2023-08-06T03:35:40;13.48;;;5.82;;
70800;SDS011;59616;52.170;5.386;2023-08-06T03:38:07;11.75;;;5.43;;
70800;SDS011;59616;52.170;5.386;2023-08-06T03:40:35;12.82;;;5.85;;
70800;SDS011;59616;52.170;5.386;2023-08-06T03:43:02;12.77;;;5.85;;
70800;SDS011;59616;52.170;5.386;2023-08-06T03:45:30;13.38;;;5.88;;
70800;SDS011;59616;52.170;5.386;2023-08-06T03:47:57;14.52;;;5.78;;
70800;SDS011;59616;52.170;5.386;2023-08-06T03:50:25;14.23;;;6.13;;
70800;SDS011;59616;52.170;5.386;2023-08-06T03:52:52;14.40;;;6.20;;
70800;SDS011;59616;52.170;5.386;2023-08-06T03:55:20;13.05;;;5.95;;
70800;SDS011;59616;52.170;5.386;2023-08-06T03:57:48;11.75;;;5.55;;
70800;SDS011;59616;52.170;5.386;2023-08-06T04:00:15;13.10;;;5.65;;
70800;SDS011;59616;52.170;5.386;2023-08-06T04:02:48;13.70;;;5.70;;
70800;SDS011;59616;52.170;5.386;2023-08-06T04:05:16;16.52;;;6.35;;
70800;SDS011;59616;52.170;5.386;2023-08-06T04:07:44;13.75;;;6.03;;
70800;SDS011;59616;52.170;5.386;2023-08-06T04:10:11;17.23;;;6.75;;
70800;SDS011;59616;52.170;5.386;2023-08-06T04:12:38;15.43;;;6.95;;
70800;SDS011;59616;52.170;5.386;2023-08-06T04:15:06;15.65;;;6.43;;
70800;SDS011;59616;52.170;5.386;2023-08-06T04:17:33;14.20;;;6.38;;
70800;SDS011;59616;52.170;5.386;2023-08-06T04:20:01;16.15;;;7.22;;
70800;SDS011;59616;52.170;5.386;2023-08-06T04:22:29;15.30;;;6.95;;
70800;SDS011;59616;52.170;5.386;2023-08-06T04:24:56;14.70;;;6.88;;
70800;SDS011;59616;52.170;5.386;2023-08-06T04:27:23;14.93;;;6.85;;
70800;SDS011;59616;52.170;5.386;2023-08-06T04:29:51;16.95;;;7.32;;
70800;SDS011;59616;52.170;5.386;2023-08-06T04:32:18;18.83;;;7.75;;
70800;SDS011;59616;52.170;5.386;2023-08-06T04:34:50;18.15;;;7.40;;
70800;SDS011;59616;52.170;5.386;2023-08-06T04:37:17;15.23;;;6.47;;
70800;SDS011;59616;52.170;5.386;2023-08-06T04:39:44;17.67;;;7.15;;
70800;SDS011;59616;52.170;5.386;2023-08-06T04:42:12;16.88;;;7.43;;
70800;SDS011;59616;52.170;5.386;2023-08-06T04:44:40;17.08;;;8.07;;
70800;SDS011;59616;52.170;5.386;2023-08-06T04:47:07;18.08;;;8.27;;
70800;SDS011;59616;52.170;5.386;2023-08-06T04:49:35;18.75;;;9.18;;
70800;SDS011;59616;52.170;5.386;2023-08-06T04:52:02;21.88;;;9.23;;
70800;SDS011;59616;52.170;5.386;2023-08-06T04:54:29;20.17;;;9.38;;
70800;SDS011;59616;52.170;5.386;2023-08-06T04:56:57;20.15;;;9.45;;
70800;SDS011;59616;52.170;5.386;2023-08-06T04:59:24;21.83;;;9.77;;
70800;SDS011;59616;52.170;5.386;2023-08-06T05:01:51;23.05;;;10.40;;
70800;SDS011;59616;52.170;5.386;2023-08-06T05:04:19;22.20;;;10.45;;
70800;SDS011;59616;52.170;5.386;2023-08-06T05:06:47;23.55;;;11.75;;
70800;SDS011;59616;52.170;5.386;2023-08-06T05:09:15;23.60;;;10.93;;
70800;SDS011;59616;52.170;5.386;2023-08-06T05:11:42;23.33;;;10.85;;
70800;SDS011;59616;52.170;5.386;2023-08-06T05:14:09;22.50;;;10.65;;
70800;SDS011;59616;52.170;5.386;2023-08-06T05:16:37;22.23;;;10.40;;
70800;SDS011;59616;52.170;5.386;2023-08-06T05:19:04;22.30;;;10.50;;
70800;SDS011;59616;52.170;5.386;2023-08-06T05:21:31;22.80;;;10.55;;
70800;SDS011;59616;52.170;5.386;2023-08-06T05:23:59;26.02;;;11.43;;
70800;SDS011;59616;52.170;5.386;2023-08-06T05:26:26;25.33;;;10.93;;
70800;SDS011;59616;52.170;5.386;2023-08-06T05:28:53;21.42;;;10.38;;
70800;SDS011;59616;52.170;5.386;2023-08-06T05:31:21;23.50;;;10.73;;
70800;SDS011;59616;52.170;5.386;2023-08-06T05:33:48;24.45;;;11.10;;
70800;SDS011;59616;52.170;5.386;2023-08-06T05:36:15;23.60;;;10.57;;
70800;SDS011;59616;52.170;5.386;2023-08-06T05:38:44;23.15;;;10.75;;
70800;SDS011;59616;52.170;5.386;2023-08-06T05:41:11;22.60;;;10.73;;
70800;SDS011;59616;52.170;5.386;2023-08-06T05:43:39;24.65;;;11.30;;
70800;SDS011;59616;52.170;5.386;2023-08-06T05:46:06;24.73;;;11.43;;
70800;SDS011;59616;52.170;5.386;2023-08-06T05:48:34;22.73;;;10.73;;
70800;SDS011;59616;52.170;5.386;2023-08-06T05:51:01;25.40;;;10.82;;
70800;SDS011;59616;52.170;5.386;2023-08-06T05:53:29;25.58;;;11.88;;
70800;SDS011;59616;52.170;5.386;2023-08-06T05:55:56;24.17;;;11.27;;
70800;SDS011;59616;52.170;5.386;2023-08-06T05:58:23;23.33;;;10.85;;
70800;SDS011;59616;52.170;5.386;2023-08-06T06:00:52;24.35;;;10.50;;
70800;SDS011;59616;52.170;5.386;2023-08-06T06:03:20;24.58;;;11.23;;
70800;SDS011;59616;52.170;5.386;2023-08-06T06:05:47;22.58;;;10.60;;
70800;SDS011;59616;52.170;5.386;2023-08-06T06:08:14;24.30;;;11.25;;
70800;SDS011;59616;52.170;5.386;2023-08-06T06:10:41;22.85;;;10.73;;
70800;SDS011;59616;52.170;5.386;2023-08-06T06:13:09;24.30;;;10.85;;
70800;SDS011;59616;52.170;5.386;2023-08-06T06:15:36;23.58;;;11.07;;
70800;SDS011;59616;52.170;5.386;2023-08-06T06:18:04;23.23;;;10.48;;
70800;SDS011;59616;52.170;5.386;2023-08-06T06:20:32;22.75;;;10.88;;
70800;SDS011;59616;52.170;5.386;2023-08-06T06:23:00;20.58;;;9.93;;
70800;SDS011;59616;52.170;5.386;2023-08-06T06:25:27;22.23;;;10.30;;
70800;SDS011;59616;52.170;5.386;2023-08-06T06:27:54;21.65;;;10.25;;
70800;SDS011;59616;52.170;5.386;2023-08-06T06:30:22;24.00;;;10.60;;
70800;SDS011;59616;52.170;5.386;2023-08-06T06:32:49;20.45;;;9.50;;
70800;SDS011;59616;52.170;5.386;2023-08-06T06:35:17;23.35;;;10.65;;
70800;SDS011;59616;52.170;5.386;2023-08-06T06:37:44;20.55;;;9.93;;
70800;SDS011;59616;52.170;5.386;2023-08-06T06:40:11;21.30;;;10.70;;
70800;SDS011;59616;52.170;5.386;2023-08-06T06:42:39;21.42;;;10.10;;
70800;SDS011;59616;52.170;5.386;2023-08-06T06:45:08;19.98;;;9.55;;
70800;SDS011;59616;52.170;5.386;2023-08-06T06:47:35;21.98;;;9.75;;
70800;SDS011;59616;52.170;5.386;2023-08-06T06:50:03;20.98;;;9.70;;
70800;SDS011;59616;52.170;5.386;2023-08-06T06:52:30;21.20;;;9.70;;
70800;SDS011;59616;52.170;5.386;2023-08-06T06:54:58;21.10;;;9.95;;
70800;SDS011;59616;52.170;5.386;2023-08-06T06:57:25;20.63;;;10.10;;
70800;SDS011;59616;52.170;5.386;2023-08-06T06:59:53;22.88;;;10.63;;
70800;SDS011;59616;52.170;5.386;2023-08-06T07:02:20;21.77;;;10.38;;
70800;SDS011;59616;52.170;5.386;2023-08-06T07:04:47;23.17;;;11.27;;
70800;SDS011;59616;52.170;5.386;2023-08-06T07:07:15;23.30;;;10.80;;
70800;SDS011;59616;52.170;5.386;2023-08-06T07:09:42;22.58;;;10.82;;
70800;SDS011;59616;52.170;5.386;2023-08-06T07:12:09;24.88;;;10.93;;
70800;SDS011;59616;52.170;5.386;2023-08-06T07:14:37;22.25;;;10.65;;
70800;SDS011;59616;52.170;5.386;2023-08-06T07:17:05;22.70;;;10.15;;
70800;SDS011;59616;52.170;5.386;2023-08-06T07:19:32;22.45;;;10.23;;
70800;SDS011;59616;52.170;5.386;2023-08-06T07:22:00;22.20;;;9.77;;
70800;SDS011;59616;52.170;5.386;2023-08-06T07:24:27;20.15;;;10.20;;
70800;SDS011;59616;52.170;5.386;2023-08-06T07:26:54;21.63;;;10.07;;
70800;SDS011;59616;52.170;5.386;2023-08-06T07:29:22;22.33;;;10.48;;
70800;SDS011;59616;52.170;5.386;2023-08-06T07:31:49;24.30;;;10.45;;
70800;SDS011;59616;52.170;5.386;2023-08-06T07:34:17;22.50;;;10.45;;
70800;SDS011;59616;52.170;5.386;2023-08-06T07:36:45;25.00;;;10.98;;
70800;SDS011;59616;52.170;5.386;2023-08-06T07:39:13;23.88;;;10.25;;
70800;SDS011;59616;52.170;5.386;2023-08-06T07:41:42;23.45;;;10.52;;
70800;SDS011;59616;52.170;5.386;2023-08-06T07:44:12;25.27;;;10.70;;
70800;SDS011;59616;52.170;5.386;2023-08-06T07:46:39;18.67;;;9.15;;
70800;SDS011;59616;52.170;5.386;2023-08-06T07:49:07;14.90;;;6.75;;
70800;SDS011;59616;52.170;5.386;2023-08-06T07:51:34;11.82;;;5.07;;
70800;SDS011;59616;52.170;5.386;2023-08-06T07:54:02;9.55;;;3.42;;
70800;SDS011;59616;52.170;5.386;2023-08-06T07:56:29;6.97;;;2.72;;
70800;SDS011;59616;52.170;5.386;2023-08-06T07:58:56;7.70;;;3.00;;
70800;SDS011;59616;52.170;5.386;2023-08-06T08:01:24;6.70;;;2.55;;
70800;SDS011;59616;52.170;5.386;2023-08-06T08:03:51;6.03;;;2.45;;
70800;SDS011;59616;52.170;5.386;2023-08-06T08:06:18;5.85;;;2.22;;
70800;SDS011;59616;52.170;5.386;2023-08-06T08:08:46;5.88;;;2.15;;
70800;SDS011;59616;52.170;5.386;2023-08-06T08:11:14;7.05;;;2.85;;
70800;SDS011;59616;52.170;5.386;2023-08-06T08:13:42;7.78;;;3.03;;
70800;SDS011;59616;52.170;5.386;2023-08-06T08:16:09;5.50;;;2.33;;
70800;SDS011;59616;52.170;5.386;2023-08-06T08:18:37;5.65;;;2.00;;
70800;SDS011;59616;52.170;5.386;2023-08-06T08:21:04;5.82;;;2.10;;
70800;SDS011;59616;52.170;5.386;2023-08-06T08:23:32;6.07;;;2.35;;
70800;SDS011;59616;52.170;5.386;2023-08-06T08:25:59;5.55;;;2.15;;
70800;SDS011;59616;52.170;5.386;2023-08-06T08:28:28;6.60;;;2.00;;
70800;SDS011;59616;52.170;5.386;2023-08-06T08:30:56;5.53;;;1.88;;
70800;SDS011;59616;52.170;5.386;2023-08-06T08:33:23;4.70;;;1.80;;
70800;SDS011;59616;52.170;5.386;2023-08-06T08:35:51;5.32;;;1.98;;
70800;SDS011;59616;52.170;5.386;2023-08-06T08:38:18;5.30;;;1.85;;
70800;SDS011;59616;52.170;5.386;2023-08-06T08:40:46;6.55;;;2.00;;
70800;SDS011;59616;52.170;5.386;2023-08-06T08:43:14;5.15;;;2.00;;
70800;SDS011;59616;52.170;5.386;2023-08-06T08:45:42;3.63;;;1.63;;
70800;SDS011;59616;52.170;5.386;2023-08-06T08:48:11;4.45;;;1.80;;
70800;SDS011;59616;52.170;5.386;2023-08-06T08:50:40;4.15;;;1.67;;
70800;SDS011;59616;52.170;5.386;2023-08-06T08:53:08;4.53;;;1.70;;
70800;SDS011;59616;52.170;5.386;2023-08-06T08:55:35;5.03;;;1.98;;
70800;SDS011;59616;52.170;5.386;2023-08-06T08:58:04;6.18;;;2.22;;
70800;SDS011;59616;52.170;5.386;2023-08-06T09:00:31;4.28;;;1.70;;
70800;SDS011;59616;52.170;5.386;2023-08-06T09:02:59;4.47;;;1.90;;
70800;SDS011;59616;52.170;5.386;2023-08-06T09:05:27;7.28;;;2.20;;
70800;SDS011;59616;52.170;5.386;2023-08-06T09:07:58;5.60;;;1.90;;
70800;SDS011;59616;52.170;5.386;2023-08-06T09:10:28;4.88;;;2.00;;
70800;SDS011;59616;52.170;5.386;2023-08-06T09:12:56;5.93;;;2.17;;
70800;SDS011;59616;52.170;5.386;2023-08-06T09:15:24;7.22;;;2.42;;
70800;SDS011;59616;52.170;5.386;2023-08-06T09:17:52;5.32;;;2.05;;
70800;SDS011;59616;52.170;5.386;2023-08-06T09:20:19;6.15;;;2.28;;
70800;SDS011;59616;52.170;5.386;2023-08-06T09:22:47;5.97;;;2.20;;
70800;SDS011;59616;52.170;5.386;2023-08-06T09:25:22;7.03;;;2.40;;
70800;SDS011;59616;52.170;5.386;2023-08-06T09:27:54;6.65;;;2.78;;
70800;SDS011;59616;52.170;5.386;2023-08-06T09:30:32;6.05;;;2.30;;
70800;SDS011;59616;52.170;5.386;2023-08-06T09:32:59;7.15;;;2.33;;
70800;SDS011;59616;52.170;5.386;2023-08-06T09:35:28;7.15;;;2.78;;
70800;SDS011;59616;52.170;5.386;2023-08-06T09:37:56;7.28;;;2.70;;
70800;SDS011;59616;52.170;5.386;2023-08-06T09:40:33;9.02;;;3.13;;
70800;SDS011;59616;52.170;5.386;2023-08-06T09:43:00;8.40;;;2.75;;
70800;SDS011;59616;52.170;5.386;2023-08-06T09:45:32;9.57;;;2.83;;
70800;SDS011;59616;52.170;5.386;2023-08-06T09:48:00;7.78;;;2.85;;
70800;SDS011;59616;52.170;5.386;2023-08-06T09:50:31;7.28;;;3.13;;
70800;SDS011;59616;52.170;5.386;2023-08-06T09:52:59;8.32;;;3.13;;
70800;SDS011;59616;52.170;5.386;2023-08-06T09:55:27;9.23;;;3.47;;
70800;SDS011;59616;52.170;5.386;2023-08-06T09:57:55;8.75;;;3.30;;
70800;SDS011;59616;52.170;5.386;2023-08-06T10:00:22;10.70;;;3.05;;
70800;SDS011;59616;52.170;5.386;2023-08-06T10:02:50;9.70;;;3.05;;
70800;SDS011;59616;52.170;5.386;2023-08-06T10:05:21;8.50;;;3.17;;
70800;SDS011;59616;52.170;5.386;2023-08-06T10:07:49;9.00;;;3.42;;
70800;SDS011;59616;52.170;5.386;2023-08-06T10:10:19;12.10;;;3.50;;
70800;SDS011;59616;52.170;5.386;2023-08-06T10:12:48;9.85;;;3.47;;
70800;SDS011;59616;52.170;5.386;2023-08-06T10:15:17;11.48;;;3.60;;
70800;SDS011;59616;52.170;5.386;2023-08-06T10:17:48;10.07;;;3.60;;
70800;SDS011;59616;52.170;5.386;2023-08-06T10:20:17;9.15;;;3.53;;
70800;SDS011;59616;52.170;5.386;2023-08-06T10:22:46;9.75;;;3.50;;
70800;SDS011;59616;52.170;5.386;2023-08-06T10:25:16;10.07;;;3.33;;
70800;SDS011;59616;52.170;5.386;2023-08-06T10:27:53;10.00;;;3.75;;
70800;SDS011;59616;52.170;5.386;2023-08-06T10:33:02;9.32;;;3.70;;
70800;SDS011;59616;52.170;5.386;2023-08-06T10:38:10;9.05;;;3.63;;
70800;SDS011;59616;52.170;5.386;2023-08-06T10:40:40;7.97;;;3.13;;
70800;SDS011;59616;52.170;5.386;2023-08-06T10:43:08;9.32;;;3.40;;
70800;SDS011;59616;52.170;5.386;2023-08-06T10:45:55;8.55;;;3.03;;
70800;SDS011;59616;52.170;5.386;2023-08-06T10:48:37;8.02;;;2.88;;
70800;SDS011;59616;52.170;5.386;2023-08-06T10:51:09;9.63;;;2.97;;
70800;SDS011;59616;52.170;5.386;2023-08-06T10:53:37;7.32;;;2.70;;
70800;SDS011;59616;52.170;5.386;2023-08-06T10:56:18;9.43;;;2.42;;
70800;SDS011;59616;52.170;5.386;2023-08-06T10:58:46;7.97;;;2.58;;
70800;SDS011;59616;52.170;5.386;2023-08-06T11:01:13;8.52;;;2.70;;
70800;SDS011;59616;52.170;5.386;2023-08-06T11:03:41;7.90;;;2.15;;
70800;SDS011;59616;52.170;5.386;2023-08-06T11:06:09;6.90;;;2.15;;
70800;SDS011;59616;52.170;5.386;2023-08-06T11:08:38;6.30;;;2.40;;
70800;SDS011;59616;52.170;5.386;2023-08-06T11:11:13;5.95;;;2.25;;
70800;SDS011;59616;52.170;5.386;2023-08-06T11:13:40;6.60;;;2.15;;
70800;SDS011;59616;52.170;5.386;2023-08-06T11:16:08;5.85;;;2.17;;
70800;SDS011;59616;52.170;5.386;2023-08-06T11:18:36;9.05;;;2.60;;
70800;SDS011;59616;52.170;5.386;2023-08-06T11:21:03;9.40;;;2.42;;
70800;SDS011;59616;52.170;5.386;2023-08-06T11:23:31;6.82;;;2.20;;
70800;SDS011;59616;52.170;5.386;2023-08-06T11:25:58;5.47;;;1.73;;
70800;SDS011;59616;52.170;5.386;2023-08-06T11:28:26;7.93;;;2.20;;
70800;SDS011;59616;52.170;5.386;2023-08-06T11:30:53;6.47;;;2.03;;
70800;SDS011;59616;52.170;5.386;2023-08-06T11:33:26;5.82;;;1.98;;
70800;SDS011;59616;52.170;5.386;2023-08-06T11:35:54;8.13;;;2.40;;
70800;SDS011;59616;52.170;5.386;2023-08-06T11:38:26;6.80;;;2.22;;
70800;SDS011;59616;52.170;5.386;2023-08-06T11:40:54;6.60;;;1.80;;
70800;SDS011;59616;52.170;5.386;2023-08-06T11:43:22;7.10;;;1.90;;
70800;SDS011;59616;52.170;5.386;2023-08-06T11:45:50;6.25;;;2.15;;
70800;SDS011;59616;52.170;5.386;2023-08-06T11:48:19;6.15;;;2.05;;
70800;SDS011;59616;52.170;5.386;2023-08-06T11:50:47;11.88;;;2.00;;
70800;SDS011;59616;52.170;5.386;2023-08-06T11:53:14;6.28;;;1.88;;
70800;SDS011;59616;52.170;5.386;2023-08-06T11:55:42;7.07;;;2.10;;
70800;SDS011;59616;52.170;5.386;2023-08-06T11:58:09;8.60;;;2.22;;
70800;SDS011;59616;52.170;5.386;2023-08-06T12:00:42;7.28;;;2.13;;
70800;SDS011;59616;52.170;5.386;2023-08-06T12:03:09;5.85;;;2.00;;
70800;SDS011;59616;52.170;5.386;2023-08-06T12:05:37;6.78;;;1.98;;
70800;SDS011;59616;52.170;5.386;2023-08-06T12:08:05;5.93;;;1.60;;
70800;SDS011;59616;52.170;5.386;2023-08-06T12:10:32;7.13;;;2.03;;
70800;SDS011;59616;52.170;5.386;2023-08-06T12:13:00;6.20;;;1.63;;
70800;SDS011;59616;52.170;5.386;2023-08-06T12:15:29;9.90;;;2.00;;
70800;SDS011;59616;52.170;5.386;2023-08-06T12:17:59;4.80;;;1.30;;
70800;SDS011;59616;52.170;5.386;2023-08-06T12:20:26;5.63;;;1.48;;
70800;SDS011;59616;52.170;5.386;2023-08-06T12:22:54;4.72;;;1.42;;
70800;SDS011;59616;52.170;5.386;2023-08-06T12:25:22;7.43;;;1.90;;
70800;SDS011;59616;52.170;5.386;2023-08-06T12:27:50;4.32;;;1.58;;
70800;SDS011;59616;52.170;5.386;2023-08-06T12:30:18;6.70;;;1.40;;
70800;SDS011;59616;52.170;5.386;2023-08-06T12:32:45;6.20;;;1.70;;
70800;SDS011;59616;52.170;5.386;2023-08-06T12:35:12;5.93;;;1.73;;
70800;SDS011;59616;52.170;5.386;2023-08-06T12:37:40;4.97;;;1.48;;
70800;SDS011;59616;52.170;5.386;2023-08-06T12:40:10;6.22;;;1.60;;
70800;SDS011;59616;52.170;5.386;2023-08-06T12:42:57;6.25;;;1.60;;
70800;SDS011;59616;52.170;5.386;2023-08-06T12:45:25;6.80;;;1.55;;
70800;SDS011;59616;52.170;5.386;2023-08-06T12:47:53;5.95;;;1.90;;
70800;SDS011;59616;52.170;5.386;2023-08-06T12:50:20;6.70;;;1.83;;
70800;SDS011;59616;52.170;5.386;2023-08-06T12:52:47;6.40;;;1.80;;
70800;SDS011;59616;52.170;5.386;2023-08-06T12:55:15;4.90;;;1.50;;
70800;SDS011;59616;52.170;5.386;2023-08-06T12:57:43;5.38;;;1.60;;
70800;SDS011;59616;52.170;5.386;2023-08-06T13:00:25;7.38;;;1.85;;
70800;SDS011;59616;52.170;5.386;2023-08-06T13:02:52;5.30;;;1.60;;
70800;SDS011;59616;52.170;5.386;2023-08-06T13:05:20;6.68;;;1.90;;
70800;SDS011;59616;52.170;5.386;2023-08-06T13:07:48;6.32;;;1.90;;
70800;SDS011;59616;52.170;5.386;2023-08-06T13:10:15;6.75;;;1.80;;
70800;SDS011;59616;52.170;5.386;2023-08-06T13:12:43;7.25;;;1.80;;
70800;SDS011;59616;52.170;5.386;2023-08-06T13:15:11;5.70;;;1.90;;
70800;SDS011;59616;52.170;5.386;2023-08-06T13:17:40;7.60;;;2.25;;
70800;SDS011;59616;52.170;5.386;2023-08-06T13:20:07;7.45;;;2.10;;
70800;SDS011;59616;52.170;5.386;2023-08-06T13:22:35;8.00;;;2.30;;
70800;SDS011;59616;52.170;5.386;2023-08-06T13:25:02;8.40;;;2.53;;
70800;SDS011;59616;52.170;5.386;2023-08-06T13:27:30;6.03;;;1.90;;
70800;SDS011;59616;52.170;5.386;2023-08-06T13:29:57;5.72;;;1.90;;
70800;SDS011;59616;52.170;5.386;2023-08-06T13:32:24;7.07;;;2.13;;
70800;SDS011;59616;52.170;5.386;2023-08-06T13:34:52;8.98;;;1.95;;
70800;SDS011;59616;52.170;5.386;2023-08-06T13:37:19;6.95;;;1.70;;
70800;SDS011;59616;52.170;5.386;2023-08-06T13:39:47;7.85;;;1.98;;
70800;SDS011;59616;52.170;5.386;2023-08-06T13:42:14;6.40;;;1.65;;
70800;SDS011;59616;52.170;5.386;2023-08-06T13:44:41;6.93;;;2.08;;
70800;SDS011;59616;52.170;5.386;2023-08-06T13:47:08;5.43;;;1.70;;
70800;SDS011;59616;52.170;5.386;2023-08-06T13:49:36;4.88;;;1.80;;
70800;SDS011;59616;52.170;5.386;2023-08-06T13:52:03;4.45;;;1.67;;
70800;SDS011;59616;52.170;5.386;2023-08-06T13:54:47;7.32;;;2.05;;
70800;SDS011;59616;52.170;5.386;2023-08-06T13:57:15;5.65;;;1.95;;
70800;SDS011;59616;52.170;5.386;2023-08-06T13:59:44;6.03;;;1.60;;
70800;SDS011;59616;52.170;5.386;2023-08-06T14:02:11;6.50;;;2.03;;
70800;SDS011;59616;52.170;5.386;2023-08-06T14:04:39;6.60;;;1.95;;
70800;SDS011;59616;52.170;5.386;2023-08-06T14:07:06;6.32;;;2.05;;
70800;SDS011;59616;52.170;5.386;2023-08-06T14:09:34;6.05;;;1.90;;
70800;SDS011;59616;52.170;5.386;2023-08-06T14:12:01;6.53;;;1.83;;
70800;SDS011;59616;52.170;5.386;2023-08-06T14:14:29;5.97;;;2.03;;
70800;SDS011;59616;52.170;5.386;2023-08-06T14:16:57;5.63;;;2.15;;
70800;SDS011;59616;52.170;5.386;2023-08-06T14:19:25;8.10;;;2.22;;
70800;SDS011;59616;52.170;5.386;2023-08-06T14:21:52;8.35;;;2.30;;
70800;SDS011;59616;52.170;5.386;2023-08-06T14:24:21;8.23;;;2.40;;
70800;SDS011;59616;52.170;5.386;2023-08-06T14:26:48;7.68;;;2.30;;
70800;SDS011;59616;52.170;5.386;2023-08-06T14:29:16;7.90;;;2.38;;
70800;SDS011;59616;52.170;5.386;2023-08-06T14:31:43;10.23;;;2.40;;
70800;SDS011;59616;52.170;5.386;2023-08-06T14:34:11;10.02;;;2.10;;
70800;SDS011;59616;52.170;5.386;2023-08-06T14:36:38;8.77;;;2.50;;
70800;SDS011;59616;52.170;5.386;2023-08-06T14:39:06;9.45;;;2.42;;
70800;SDS011;59616;52.170;5.386;2023-08-06T14:41:33;9.57;;;2.25;;
70800;SDS011;59616;52.170;5.386;2023-08-06T14:44:00;7.50;;;2.25;;
70800;SDS011;59616;52.170;5.386;2023-08-06T14:46:27;9.10;;;2.33;;
70800;SDS011;59616;52.170;5.386;2023-08-06T14:48:55;7.97;;;2.10;;
70800;SDS011;59616;52.170;5.386;2023-08-06T14:51:22;6.40;;;2.22;;
70800;SDS011;59616;52.170;5.386;2023-08-06T14:53:49;6.57;;;2.10;;
70800;SDS011;59616;52.170;5.386;2023-08-06T14:56:17;5.18;;;1.92;;